createdAt,value
2023-03-31T00:00:33.523Z,16.05
2023-03-31T00:03:02.936Z,16.08
2023-03-31T00:05:33.933Z,16.09
2023-03-31T00:08:02.106Z,16.07
2023-03-31T00:10:30.190Z,16.07
2023-03-31T00:12:58.105Z,16.03
2023-03-31T00:15:26.143Z,16.02
2023-03-31T00:17:54.128Z,16.03
2023-03-31T00:20:22.872Z,16.04
2023-03-31T00:22:54.605Z,16.02
2023-03-31T00:25:22.476Z,16.04
2023-03-31T00:27:52.817Z,16.06
2023-03-31T00:30:20.928Z,16.06
2023-03-31T00:32:49.338Z,16.05
2023-03-31T00:35:17.339Z,16.06
2023-03-31T00:37:45.946Z,16.06
2023-03-31T00:40:15.347Z,16.10
2023-03-31T00:42:43.251Z,16.09
2023-03-31T00:45:27.476Z,16.09
2023-03-31T00:47:56.497Z,16.07
2023-03-31T00:50:26.136Z,15.94
2023-03-31T00:52:56.579Z,16.02
2023-03-31T00:55:28.381Z,16.02
2023-03-31T00:57:56.259Z,15.97
2023-03-31T01:00:24.308Z,16.03
2023-03-31T01:02:56.131Z,16.05
2023-03-31T01:05:26.461Z,16.01
2023-03-31T01:07:54.332Z,15.98
2023-03-31T01:10:23.265Z,15.88
2023-03-31T01:12:53.784Z,15.83
2023-03-31T01:15:21.723Z,15.79
2023-03-31T01:17:51.197Z,15.76
2023-03-31T01:20:22.815Z,15.71
2023-03-31T01:23:16.852Z,15.62
2023-03-31T01:26:04.586Z,15.67
2023-03-31T01:28:38.417Z,15.61
2023-03-31T01:31:26.417Z,15.61
2023-03-31T01:34:32.685Z,15.58
2023-03-31T01:37:29.581Z,15.54
2023-03-31T01:40:27.682Z,15.50
2023-03-31T01:42:57.183Z,15.40
2023-03-31T01:45:30.106Z,15.40
2023-03-31T01:47:59.244Z,15.37
2023-03-31T01:50:29.070Z,15.37
2023-03-31T01:52:59.642Z,15.10
2023-03-31T01:55:31.281Z,15.32
2023-03-31T01:58:00.997Z,15.32
2023-03-31T02:00:29.898Z,15.33
2023-03-31T02:02:59.559Z,15.32
2023-03-31T02:05:28.590Z,15.38
2023-03-31T02:07:57.630Z,15.37
2023-03-31T02:10:26.498Z,15.38
2023-03-31T02:12:55.892Z,15.42
2023-03-31T02:15:25.082Z,15.42
2023-03-31T02:17:54.772Z,15.33
2023-03-31T02:20:22.864Z,15.52
2023-03-31T02:22:51.988Z,15.51
2023-03-31T02:25:20.866Z,15.55
2023-03-31T02:27:49.898Z,15.56
2023-03-31T02:30:19.183Z,15.53
2023-03-31T02:32:47.720Z,15.51
2023-03-31T02:35:21.698Z,15.51
2023-03-31T02:37:49.879Z,15.52
2023-03-31T02:40:19.948Z,15.48
2023-03-31T02:42:47.807Z,15.43
2023-03-31T02:45:41.495Z,15.46
2023-03-31T02:48:11.794Z,15.44
2023-03-31T02:51:01.860Z,15.40
2023-03-31T02:53:33.194Z,15.35
2023-03-31T02:56:07.619Z,15.32
2023-03-31T02:58:42.274Z,15.29
2023-03-31T03:01:19.715Z,15.26
2023-03-31T03:03:53.975Z,15.24
2023-03-31T03:06:30.228Z,15.11
2023-03-31T03:09:06.401Z,15.14
2023-03-31T03:11:39.626Z,15.02
2023-03-31T03:14:08.795Z,14.77
2023-03-31T03:16:39.277Z,15.01
2023-03-31T03:19:07.593Z,15.11
2023-03-31T03:21:35.769Z,15.13
2023-03-31T03:24:03.677Z,15.14
2023-03-31T03:26:35.235Z,15.05
2023-03-31T03:29:03.145Z,15.13
2023-03-31T03:31:31.352Z,15.06
2023-03-31T03:34:00.816Z,15.03
2023-03-31T03:36:40.284Z,14.87
2023-03-31T03:39:08.896Z,14.96
2023-03-31T03:41:36.785Z,14.93
2023-03-31T03:44:04.728Z,14.92
2023-03-31T03:46:32.855Z,14.78
2023-03-31T03:49:02.250Z,14.88
2023-03-31T03:51:30.168Z,14.90
2023-03-31T03:53:58.053Z,14.89
2023-03-31T03:56:26.411Z,14.88
2023-03-31T03:58:54.418Z,14.87
2023-03-31T04:01:22.698Z,14.82
2023-03-31T04:03:50.609Z,14.87
2023-03-31T04:06:19.878Z,14.86
2023-03-31T04:08:47.827Z,14.88
2023-03-31T04:11:18.921Z,14.82
2023-03-31T04:13:47.273Z,14.85
2023-03-31T04:16:16.836Z,14.83
2023-03-31T04:18:45.805Z,14.81
2023-03-31T04:21:15.539Z,14.81
2023-03-31T04:23:47.410Z,14.51
2023-03-31T04:26:15.484Z,14.79
2023-03-31T04:28:46.777Z,14.82
2023-03-31T04:31:16.692Z,14.76
2023-03-31T04:33:46.142Z,14.79
2023-03-31T04:36:17.988Z,14.80
2023-03-31T04:38:47.888Z,14.81
2023-03-31T04:41:15.739Z,14.79
2023-03-31T04:43:43.752Z,14.78
2023-03-31T04:46:11.697Z,14.69
2023-03-31T04:48:39.660Z,14.64
2023-03-31T04:51:07.727Z,14.69
2023-03-31T04:53:35.598Z,14.66
2023-03-31T04:56:06.085Z,14.60
2023-03-31T04:58:34.196Z,14.58
2023-03-31T05:01:02.159Z,14.54
2023-03-31T05:03:30.220Z,14.50
2023-03-31T05:05:58.263Z,14.37
2023-03-31T05:08:27.157Z,14.42
2023-03-31T05:10:55.038Z,14.42
2023-03-31T05:13:24.276Z,14.39
2023-03-31T05:15:52.658Z,14.37
2023-03-31T05:18:20.519Z,14.37
2023-03-31T05:20:48.376Z,14.28
2023-03-31T05:23:16.257Z,14.37
2023-03-31T05:25:44.167Z,14.36
2023-03-31T05:28:12.042Z,14.32
2023-03-31T05:30:41.288Z,14.37
2023-03-31T05:33:09.252Z,14.33
2023-03-31T05:35:42.852Z,14.35
2023-03-31T05:38:10.786Z,14.41
2023-03-31T05:40:38.991Z,14.42
2023-03-31T05:43:06.887Z,14.42
2023-03-31T05:45:34.833Z,14.44
2023-03-31T05:48:04.106Z,14.44
2023-03-31T05:50:31.962Z,14.41
2023-03-31T05:53:00.510Z,14.41
2023-03-31T05:55:28.363Z,14.42
2023-03-31T05:57:56.826Z,14.42
2023-03-31T06:00:25.007Z,14.42
2023-03-31T06:02:53.011Z,14.39
2023-03-31T06:05:25.810Z,14.42
2023-03-31T06:07:53.771Z,14.41
2023-03-31T06:10:21.756Z,14.42
2023-03-31T06:12:49.694Z,14.42
2023-03-31T06:15:17.774Z,14.46
2023-03-31T06:17:45.727Z,14.48
2023-03-31T06:20:27.305Z,14.50
2023-03-31T06:22:57.346Z,14.50
2023-03-31T06:25:25.458Z,14.50
2023-03-31T06:27:53.522Z,14.55
2023-03-31T06:30:24.381Z,14.57
2023-03-31T06:32:52.283Z,14.65
2023-03-31T06:35:20.169Z,14.67
2023-03-31T06:37:48.038Z,14.73
2023-03-31T06:40:17.593Z,14.78
2023-03-31T06:42:45.516Z,14.80
2023-03-31T06:45:13.422Z,14.85
2023-03-31T06:47:41.660Z,14.88
2023-03-31T06:50:10.514Z,14.91
2023-03-31T06:52:42.025Z,14.91
2023-03-31T06:55:10.727Z,14.93
2023-03-31T06:57:40.068Z,14.94
2023-03-31T07:00:09.482Z,14.81
2023-03-31T07:02:38.850Z,14.93
2023-03-31T07:05:07.896Z,14.90
2023-03-31T07:07:35.805Z,14.86
2023-03-31T07:10:03.835Z,14.77
2023-03-31T07:12:45.944Z,14.77
2023-03-31T07:15:14.611Z,14.69
2023-03-31T07:17:46.671Z,14.74
2023-03-31T07:20:18.927Z,14.72
2023-03-31T07:22:52.545Z,14.68
2023-03-31T07:25:20.745Z,14.59
2023-03-31T07:27:52.089Z,14.63
2023-03-31T07:30:20.758Z,14.61
2023-03-31T07:32:49.243Z,14.65
2023-03-31T07:35:20.593Z,14.51
2023-03-31T07:37:54.711Z,14.63
2023-03-31T07:40:33.314Z,14.55
2023-03-31T07:43:14.261Z,13.93
2023-03-31T07:45:42.387Z,14.24
2023-03-31T07:48:16.519Z,14.65
2023-03-31T07:51:00.054Z,14.56
2023-03-31T07:53:28.485Z,14.53
2023-03-31T07:55:56.990Z,14.76
2023-03-31T07:58:27.171Z,14.82
2023-03-31T08:00:56.367Z,14.67
2023-03-31T08:03:24.786Z,14.81
2023-03-31T08:05:52.941Z,14.78
2023-03-31T08:08:23.111Z,14.73
2023-03-31T08:10:54.340Z,14.72
2023-03-31T08:13:22.774Z,14.69
2023-03-31T08:15:52.631Z,14.70
2023-03-31T08:18:20.840Z,14.64
2023-03-31T08:20:52.047Z,14.68
2023-03-31T08:23:20.413Z,14.48
2023-03-31T08:25:48.590Z,14.67
2023-03-31T08:28:19.646Z,14.64
2023-03-31T08:30:49.649Z,14.60
2023-03-31T08:33:19.839Z,14.42
2023-03-31T08:35:48.222Z,14.57
2023-03-31T08:38:25.101Z,14.44
2023-03-31T08:40:53.245Z,14.62
2023-03-31T08:43:24.939Z,14.59
2023-03-31T08:46:03.810Z,14.40
2023-03-31T08:48:35.174Z,14.59
2023-03-31T08:51:08.429Z,14.38
2023-03-31T08:53:38.450Z,14.52
2023-03-31T08:56:11.631Z,14.43
2023-03-31T08:58:41.966Z,14.25
2023-03-31T09:01:19.712Z,14.18
2023-03-31T09:04:02.599Z,14.32
2023-03-31T09:06:35.635Z,14.32
2023-03-31T09:09:10.173Z,14.28
2023-03-31T09:11:39.685Z,14.23
2023-03-31T09:14:14.959Z,14.26
2023-03-31T09:16:47.029Z,14.28
2023-03-31T09:19:29.776Z,14.25
2023-03-31T09:22:02.943Z,14.22
2023-03-31T09:24:32.956Z,14.24
2023-03-31T09:27:02.547Z,13.65
2023-03-31T09:29:32.615Z,14.15
2023-03-31T09:32:03.030Z,14.24
2023-03-31T09:34:33.576Z,14.21
2023-03-31T09:37:02.181Z,14.19
2023-03-31T09:39:30.083Z,14.24
2023-03-31T09:41:58.367Z,14.22
2023-03-31T09:44:28.328Z,14.12
2023-03-31T09:46:57.295Z,14.21
2023-03-31T09:49:26.694Z,14.19
2023-03-31T09:52:03.066Z,14.17
2023-03-31T09:54:36.031Z,14.06
2023-03-31T09:57:04.372Z,14.08
2023-03-31T09:59:34.093Z,14.13
2023-03-31T10:02:05.328Z,13.98
2023-03-31T10:04:34.775Z,13.93
2023-03-31T10:07:05.705Z,14.02
2023-03-31T10:09:34.651Z,13.93
2023-03-31T10:12:05.397Z,14.05
2023-03-31T10:14:35.806Z,14.03
2023-03-31T10:17:05.294Z,14.07
2023-03-31T10:19:33.860Z,14.06
2023-03-31T10:22:06.083Z,14.01
2023-03-31T10:24:47.064Z,14.04
2023-03-31T10:27:20.558Z,14.03
2023-03-31T10:29:48.493Z,14.04
2023-03-31T10:32:23.184Z,13.98
2023-03-31T10:34:51.432Z,14.03
2023-03-31T10:37:20.507Z,13.95
2023-03-31T10:39:50.186Z,13.93
2023-03-31T10:42:23.212Z,13.95
2023-03-31T10:44:51.165Z,13.82
2023-03-31T10:47:20.764Z,13.98
2023-03-31T10:49:53.942Z,13.98
2023-03-31T10:52:24.997Z,13.98
2023-03-31T10:55:05.131Z,12.73
2023-03-31T10:57:39.716Z,13.52
2023-03-31T11:00:19.240Z,14.05
2023-03-31T11:03:33.968Z,14.07
2023-03-31T11:06:04.860Z,14.00
2023-03-31T11:08:43.506Z,14.07
2023-03-31T11:11:28.354Z,14.08
2023-03-31T11:13:58.695Z,14.01
2023-03-31T11:16:29.352Z,14.09
2023-03-31T11:19:04.527Z,14.10
2023-03-31T11:21:38.420Z,14.07
2023-03-31T11:24:09.495Z,14.10
2023-03-31T11:26:44.079Z,14.07
2023-03-31T11:29:18.939Z,14.09
2023-03-31T11:31:51.003Z,14.07
2023-03-31T11:34:37.048Z,14.10
2023-03-31T11:37:19.622Z,14.11
2023-03-31T11:39:53.540Z,14.13
2023-03-31T11:42:24.213Z,14.12
2023-03-31T11:44:55.198Z,14.19
2023-03-31T11:47:24.180Z,14.07
2023-03-31T11:49:55.184Z,14.01
2023-03-31T11:52:29.817Z,14.23
2023-03-31T11:55:01.615Z,14.26
2023-03-31T11:57:33.234Z,14.22
2023-03-31T12:00:07.142Z,14.25
2023-03-31T12:02:40.039Z,14.26
2023-03-31T12:05:11.358Z,14.22
2023-03-31T12:07:42.603Z,14.27
2023-03-31T12:10:17.315Z,14.27
2023-03-31T12:12:48.278Z,14.29
2023-03-31T12:15:20.020Z,14.29
2023-03-31T12:17:52.027Z,14.29
2023-03-31T12:20:29.416Z,14.29
2023-03-31T12:23:07.848Z,14.00
2023-03-31T12:25:44.366Z,14.31
2023-03-31T12:28:13.991Z,14.32
2023-03-31T12:30:44.380Z,14.31
2023-03-31T12:33:25.503Z,14.31
2023-03-31T12:36:05.990Z,14.05
2023-03-31T12:38:43.041Z,14.23
2023-03-31T12:41:15.066Z,14.29
2023-03-31T12:44:12.281Z,14.29
2023-03-31T12:47:00.599Z,14.22
2023-03-31T12:49:39.245Z,14.06
2023-03-31T12:52:18.599Z,14.33
2023-03-31T12:55:11.637Z,14.24
2023-03-31T12:57:47.240Z,14.40
2023-03-31T13:00:26.024Z,14.10
2023-03-31T13:03:27.392Z,14.35
2023-03-31T13:05:55.570Z,14.29
2023-03-31T13:08:54.727Z,14.41
2023-03-31T13:11:23.339Z,14.42
2023-03-31T13:14:00.964Z,14.42
2023-03-31T13:16:30.575Z,14.32
2023-03-31T13:18:58.598Z,14.41
2023-03-31T13:21:26.708Z,14.36
2023-03-31T13:23:54.741Z,14.29
2023-03-31T13:26:43.851Z,14.37
2023-03-31T13:29:25.077Z,14.30
2023-03-31T13:32:19.116Z,14.33
2023-03-31T13:34:52.752Z,14.41
2023-03-31T13:37:45.138Z,14.13
2023-03-31T13:40:23.856Z,14.27
2023-03-31T13:43:36.338Z,14.36
2023-03-31T13:46:38.054Z,14.36
2023-03-31T13:49:26.056Z,14.34
2023-03-31T13:51:54.574Z,14.40
2023-03-31T13:54:40.111Z,13.61
2023-03-31T13:57:33.690Z,14.42
2023-03-31T14:00:35.249Z,14.38
2023-03-31T14:03:08.568Z,14.30
2023-03-31T14:05:39.859Z,14.28
2023-03-31T14:08:12.147Z,14.25
2023-03-31T14:10:41.438Z,13.85
2023-03-31T14:13:13.492Z,14.28
2023-03-31T14:15:43.298Z,14.31
2023-03-31T14:18:15.669Z,14.13
2023-03-31T14:20:52.168Z,14.34
2023-03-31T14:23:27.367Z,14.11
2023-03-31T14:26:01.020Z,14.39
2023-03-31T14:29:02.661Z,14.36
2023-03-31T14:31:36.336Z,14.38
2023-03-31T14:34:25.305Z,14.40
2023-03-31T14:36:58.834Z,14.25
2023-03-31T14:39:32.075Z,14.44
2023-03-31T14:42:02.837Z,14.45
2023-03-31T14:44:31.354Z,14.43
2023-03-31T14:47:02.410Z,14.41
2023-03-31T14:49:32.288Z,14.39
2023-03-31T14:52:03.415Z,14.40
2023-03-31T14:54:37.348Z,14.40
2023-03-31T14:57:05.836Z,14.43
2023-03-31T14:59:35.565Z,14.44
2023-03-31T15:02:05.284Z,14.47
2023-03-31T15:04:45.259Z,14.51
2023-03-31T15:07:16.784Z,14.44
2023-03-31T15:09:49.687Z,14.44
2023-03-31T15:12:19.325Z,14.33
2023-03-31T15:14:48.813Z,14.37
2023-03-31T15:17:22.157Z,14.34
2023-03-31T15:19:57.988Z,14.37
2023-03-31T15:22:29.070Z,14.37
2023-03-31T15:24:57.926Z,14.36
2023-03-31T15:27:37.212Z,14.38
2023-03-31T15:30:10.448Z,14.36
2023-03-31T15:32:39.504Z,14.39
2023-03-31T15:35:21.800Z,14.39
2023-03-31T15:37:54.523Z,14.41
2023-03-31T15:40:24.056Z,14.41
2023-03-31T15:43:06.060Z,14.43
2023-03-31T15:45:51.787Z,14.43
2023-03-31T15:48:23.150Z,14.41
2023-03-31T15:50:52.025Z,14.37
2023-03-31T15:53:46.252Z,14.25
2023-03-31T15:56:27.394Z,14.34
2023-03-31T15:58:58.242Z,14.34
2023-03-31T16:01:30.596Z,14.36
2023-03-31T16:03:59.504Z,14.38
2023-03-31T16:06:36.311Z,14.43
2023-03-31T16:09:07.395Z,14.45
2023-03-31T16:11:40.563Z,14.38
2023-03-31T16:14:11.669Z,14.44
2023-03-31T16:16:40.301Z,14.47
2023-03-31T16:19:10.489Z,14.48
2023-03-31T16:21:40.810Z,14.48
2023-03-31T16:24:11.628Z,14.45
2023-03-31T16:26:40.194Z,14.38
2023-03-31T16:29:08.585Z,14.49
2023-03-31T16:31:38.066Z,14.51
2023-03-31T16:34:07.930Z,14.51
2023-03-31T16:36:36.087Z,14.50
2023-03-31T16:39:05.218Z,14.51
2023-03-31T16:41:35.394Z,14.50
2023-03-31T16:44:04.426Z,14.49
2023-03-31T16:46:33.065Z,14.45
2023-03-31T16:49:03.880Z,14.46
2023-03-31T16:51:31.848Z,14.20
2023-03-31T16:54:00.885Z,14.41
2023-03-31T16:56:31.795Z,14.45
2023-03-31T17:01:32.443Z,14.43
2023-03-31T17:04:00.730Z,14.38
2023-03-31T17:06:29.252Z,14.41
2023-03-31T17:08:57.438Z,14.41
2023-03-31T17:11:26.658Z,14.40
2023-03-31T17:13:56.414Z,14.40
2023-03-31T17:19:14.319Z,14.28
2023-03-31T17:21:42.557Z,14.37
2023-03-31T17:24:10.426Z,14.37
2023-03-31T17:26:39.398Z,14.35
2023-03-31T17:29:07.433Z,14.36
2023-03-31T17:31:36.703Z,14.35
2023-03-31T17:34:04.600Z,14.33
2023-03-31T17:36:32.882Z,14.30
2023-03-31T17:39:01.231Z,14.29
2023-03-31T17:41:30.744Z,14.28
2023-03-31T17:43:59.046Z,14.20
2023-03-31T17:46:27.536Z,14.29
2023-03-31T17:48:59.179Z,14.28
2023-03-31T17:51:27.823Z,14.28
2023-03-31T17:53:56.373Z,14.27
2023-03-31T17:56:24.770Z,14.15
2023-03-31T17:58:53.907Z,14.28
2023-03-31T18:01:22.479Z,14.28
2023-03-31T18:03:50.999Z,14.27
2023-03-31T18:06:20.498Z,14.24
2023-03-31T18:08:49.743Z,14.26
2023-03-31T18:11:18.261Z,14.25
2023-03-31T18:13:46.402Z,14.23
2023-03-31T18:16:14.769Z,14.20
2023-03-31T18:18:43.867Z,14.24
2023-03-31T18:21:13.243Z,14.24
2023-03-31T18:23:43.074Z,14.23
2023-03-31T18:26:11.991Z,14.22
2023-03-31T18:28:40.947Z,14.25
2023-03-31T18:31:09.290Z,14.26
2023-03-31T18:33:37.450Z,14.26
2023-03-31T18:36:06.021Z,14.29
2023-03-31T18:38:34.431Z,14.27
2023-03-31T18:41:03.768Z,14.29
2023-03-31T18:43:33.389Z,14.29
2023-03-31T18:46:01.590Z,14.30
2023-03-31T18:48:29.629Z,14.29
2023-03-31T18:50:57.730Z,14.28
2023-03-31T18:53:25.984Z,14.19
2023-03-31T18:55:55.103Z,14.27
2023-03-31T18:58:24.706Z,14.25
2023-03-31T19:00:52.864Z,14.27
2023-03-31T19:03:21.272Z,14.23
2023-03-31T19:05:49.782Z,14.27
2023-03-31T19:08:17.838Z,14.26
2023-03-31T19:10:45.863Z,14.24
2023-03-31T19:13:15.007Z,14.26
2023-03-31T19:15:44.940Z,14.26
2023-03-31T19:18:14.641Z,14.25
2023-03-31T19:20:43.234Z,14.26
2023-03-31T19:23:11.310Z,14.26
2023-03-31T19:25:39.564Z,14.26
2023-03-31T19:28:07.632Z,14.27
2023-03-31T19:30:35.580Z,14.28
2023-03-31T19:33:05.342Z,14.27
2023-03-31T19:35:33.604Z,14.25
2023-03-31T19:38:02.640Z,14.25
2023-03-31T19:40:30.766Z,14.29
2023-03-31T19:42:58.893Z,14.28
2023-03-31T19:45:27.023Z,14.23
2023-03-31T19:47:55.389Z,14.27
2023-03-31T19:50:24.937Z,14.30
2023-03-31T19:52:53.125Z,14.29
2023-03-31T19:55:21.223Z,14.28
2023-03-31T19:57:49.323Z,14.26
2023-03-31T20:00:19.670Z,14.27
2023-03-31T20:02:48.415Z,14.27
2023-03-31T20:05:17.720Z,14.26
2023-03-31T20:07:47.492Z,14.26
2023-03-31T20:10:15.953Z,14.30
2023-03-31T20:12:43.993Z,14.32
2023-03-31T20:15:12.138Z,14.34
2023-03-31T20:17:40.363Z,14.36
2023-03-31T20:20:18.760Z,14.38
2023-03-31T20:22:56.011Z,14.32
2023-03-31T20:25:23.941Z,14.37
2023-03-31T20:27:54.180Z,14.38
2023-03-31T20:30:22.293Z,14.40
2023-03-31T20:32:50.240Z,14.40
2023-03-31T20:35:18.326Z,14.40
2023-03-31T20:37:47.610Z,14.43
2023-03-31T20:40:16.054Z,14.45
2023-03-31T20:42:43.947Z,14.48
2023-03-31T20:45:13.006Z,14.51
2023-03-31T20:47:41.232Z,14.53
2023-03-31T20:50:09.894Z,14.54
2023-03-31T20:52:37.813Z,14.57
2023-03-31T20:55:08.854Z,14.57
2023-03-31T20:57:38.375Z,14.55
2023-03-31T21:00:07.459Z,14.62
2023-03-31T21:02:35.359Z,14.60
2023-03-31T21:05:03.266Z,14.62
2023-03-31T21:07:31.770Z,14.63
2023-03-31T21:10:00.658Z,14.63
2023-03-31T21:12:40.572Z,14.67
2023-03-31T21:15:09.832Z,14.66
2023-03-31T21:17:37.785Z,14.70
2023-03-31T21:20:06.512Z,14.70
2023-03-31T21:22:34.435Z,14.71
2023-03-31T21:25:02.344Z,14.72
2023-03-31T21:27:30.381Z,14.73
2023-03-31T21:30:00.055Z,14.75
2023-03-31T21:32:29.592Z,14.74
2023-03-31T21:34:58.368Z,14.74
2023-03-31T21:37:27.543Z,14.75
2023-03-31T21:39:55.470Z,14.72
2023-03-31T21:42:24.382Z,14.72
2023-03-31T21:44:58.756Z,14.69
2023-03-31T21:47:28.289Z,14.70
2023-03-31T21:49:56.196Z,14.69
2023-03-31T21:52:24.563Z,14.71
2023-03-31T21:54:52.633Z,14.71
2023-03-31T21:57:20.612Z,14.73
2023-03-31T21:59:48.514Z,14.76
2023-03-31T22:02:16.638Z,14.77
2023-03-31T22:04:46.499Z,14.77
2023-03-31T22:07:14.634Z,14.77
2023-03-31T22:09:42.570Z,14.78
2023-03-31T22:12:10.550Z,14.78
2023-03-31T22:14:38.927Z,14.77
2023-03-31T22:17:06.809Z,14.78
2023-03-31T22:19:34.672Z,14.79
2023-03-31T22:22:04.193Z,14.82
2023-03-31T22:24:32.277Z,14.75
2023-03-31T22:27:00.216Z,14.83
2023-03-31T22:29:28.078Z,14.83
2023-03-31T22:31:56.145Z,14.81
2023-03-31T22:34:24.125Z,14.81
2023-03-31T22:36:52.053Z,14.86
2023-03-31T22:39:21.279Z,14.85
2023-03-31T22:41:49.337Z,14.84
2023-03-31T22:44:17.221Z,14.82
2023-03-31T22:46:46.396Z,14.82
2023-03-31T22:49:14.760Z,14.80
2023-03-31T22:51:43.632Z,14.75
2023-03-31T22:54:13.350Z,14.77
2023-03-31T22:56:42.955Z,14.75
2023-03-31T22:59:11.178Z,14.70
2023-03-31T23:01:39.144Z,14.61
2023-03-31T23:04:07.180Z,14.70
2023-03-31T23:06:36.163Z,14.71
2023-03-31T23:09:04.219Z,14.69
2023-03-31T23:11:33.923Z,14.72
2023-03-31T23:14:04.544Z,14.74
2023-03-31T23:16:32.596Z,14.75
2023-03-31T23:19:01.286Z,14.74
2023-03-31T23:21:29.468Z,14.75
2023-03-31T23:23:58.103Z,14.78
2023-03-31T23:26:26.389Z,14.75
2023-03-31T23:28:54.308Z,14.77
2023-03-31T23:31:24.333Z,14.76
2023-03-31T23:33:52.213Z,14.75
2023-03-31T23:36:21.210Z,14.72
2023-03-31T23:38:49.447Z,14.69
2023-03-31T23:41:17.346Z,14.67
2023-03-31T23:43:45.306Z,14.63
2023-03-31T23:46:13.608Z,14.58
2023-03-31T23:48:42.891Z,14.56
2023-03-31T23:51:10.763Z,14.53
2023-03-31T23:53:38.668Z,14.52
2023-03-31T23:56:07.600Z,14.49
2023-03-31T23:58:35.634Z,14.52
